createdAt,value
2022-10-10T00:01:32.214Z,7.43
2022-10-10T00:04:00.329Z,8.98
2022-10-10T00:06:32.740Z,5.82
2022-10-10T00:09:01.332Z,7.85
2022-10-10T00:11:29.182Z,8.23
2022-10-10T00:13:57.138Z,5.93
2022-10-10T00:16:25.806Z,8.43
2022-10-10T00:18:53.598Z,8.63
2022-10-10T00:21:21.202Z,6.60
2022-10-10T00:23:48.827Z,8.05
2022-10-10T00:26:19.128Z,7.47
2022-10-10T00:28:47.709Z,6.22
2022-10-10T00:31:15.496Z,6.70
2022-10-10T00:33:43.164Z,6.18
2022-10-10T00:36:10.895Z,4.65
2022-10-10T00:38:38.485Z,7.57
2022-10-10T00:41:06.208Z,8.80
2022-10-10T00:43:33.849Z,11.48
2022-10-10T00:46:01.565Z,9.18
2022-10-10T00:48:47.180Z,9.77
2022-10-10T00:51:17.364Z,6.00
2022-10-10T00:53:50.744Z,6.25
2022-10-10T00:56:20.079Z,4.82
2022-10-10T00:58:51.148Z,7.40
2022-10-10T01:01:18.770Z,6.63
2022-10-10T01:03:46.403Z,6.22
2022-10-10T01:06:14.068Z,7.47
2022-10-10T01:08:42.313Z,5.03
2022-10-10T01:11:32.999Z,9.88
2022-10-10T01:14:16.263Z,6.43
2022-10-10T01:16:43.789Z,5.35
2022-10-10T01:19:33.384Z,6.60
2022-10-10T01:22:19.848Z,6.78
2022-10-10T01:25:05.790Z,4.88
2022-10-10T01:27:43.319Z,8.30
2022-10-10T01:30:13.078Z,5.22
2022-10-10T01:32:40.663Z,4.85
2022-10-10T01:35:29.034Z,7.70
2022-10-10T01:38:05.728Z,8.25
2022-10-10T01:40:33.318Z,7.32
2022-10-10T01:43:02.870Z,8.23
2022-10-10T01:45:33.822Z,8.73
2022-10-10T01:48:04.665Z,6.67
2022-10-10T01:50:38.254Z,5.50
2022-10-10T01:53:05.826Z,6.97
2022-10-10T01:55:42.166Z,8.32
2022-10-10T01:58:18.948Z,9.68
2022-10-10T02:00:53.457Z,9.50
2022-10-10T02:03:24.957Z,5.20
2022-10-10T02:06:03.060Z,8.32
2022-10-10T02:08:37.872Z,9.77
2022-10-10T02:11:07.124Z,7.55
2022-10-10T02:13:54.997Z,4.15
2022-10-10T02:16:24.994Z,7.93
2022-10-10T02:18:52.914Z,9.18
2022-10-10T02:21:20.630Z,4.45
2022-10-10T02:23:49.747Z,6.82
2022-10-10T02:26:18.573Z,6.45
2022-10-10T02:28:53.616Z,11.38
2022-10-10T02:31:50.560Z,8.02
2022-10-10T02:34:19.516Z,8.10
2022-10-10T02:36:50.538Z,6.93
2022-10-10T02:39:19.442Z,11.77
2022-10-10T02:41:48.056Z,6.63
2022-10-10T02:44:15.837Z,4.45
2022-10-10T02:46:43.485Z,6.03
2022-10-10T02:49:11.647Z,5.90
2022-10-10T02:51:39.855Z,5.88
2022-10-10T02:54:07.901Z,7.97
2022-10-10T02:56:35.546Z,4.03
2022-10-10T02:59:03.109Z,5.32
2022-10-10T03:01:30.668Z,5.75
2022-10-10T03:03:58.870Z,6.30
2022-10-10T03:06:26.465Z,5.53
2022-10-10T03:08:54.090Z,9.77
2022-10-10T03:11:21.696Z,6.93
2022-10-10T03:13:49.316Z,7.90
2022-10-10T03:16:16.912Z,4.85
2022-10-10T03:18:44.569Z,8.40
2022-10-10T03:21:12.170Z,6.97
2022-10-10T03:23:39.786Z,8.40
2022-10-10T03:26:07.894Z,7.90
2022-10-10T03:28:37.388Z,7.13
2022-10-10T03:31:05.401Z,6.63
2022-10-10T03:33:33.053Z,4.53
2022-10-10T03:36:00.901Z,3.33
2022-10-10T03:38:31.770Z,7.18
2022-10-10T03:40:59.352Z,7.45
2022-10-10T03:43:26.945Z,9.15
2022-10-10T03:45:54.493Z,7.45
2022-10-10T03:48:22.118Z,7.55
2022-10-10T03:50:49.763Z,4.78
2022-10-10T03:53:17.352Z,6.18
2022-10-10T03:55:45.085Z,7.40
2022-10-10T03:58:12.678Z,6.82
2022-10-10T04:00:40.372Z,6.43
2022-10-10T04:03:09.298Z,4.30
2022-10-10T04:05:38.051Z,5.43
2022-10-10T04:08:06.781Z,6.40
2022-10-10T04:10:34.378Z,8.45
2022-10-10T04:13:01.932Z,7.75
2022-10-10T04:15:30.566Z,4.65
2022-10-10T04:17:58.188Z,11.60
2022-10-10T04:20:26.106Z,9.07
2022-10-10T04:22:54.054Z,11.27
2022-10-10T04:25:21.831Z,6.53
2022-10-10T04:27:49.475Z,6.20
2022-10-10T04:30:19.693Z,7.20
2022-10-10T04:32:47.252Z,7.60
2022-10-10T04:35:14.821Z,6.70
2022-10-10T04:37:42.469Z,7.00
2022-10-10T04:40:10.340Z,5.57
2022-10-10T04:42:38.114Z,8.70
2022-10-10T04:45:06.938Z,7.03
2022-10-10T04:47:34.561Z,8.15
2022-10-10T04:50:02.187Z,6.40
2022-10-10T04:52:29.792Z,4.55
2022-10-10T04:54:57.413Z,7.95
2022-10-10T04:57:25.157Z,7.90
2022-10-10T04:59:52.889Z,8.43
2022-10-10T05:02:20.481Z,10.15
2022-10-10T05:04:48.986Z,8.52
2022-10-10T05:07:16.641Z,6.63
2022-10-10T05:09:44.310Z,6.75
2022-10-10T05:12:11.896Z,7.40
2022-10-10T05:14:39.554Z,6.13
2022-10-10T05:17:07.212Z,8.05
2022-10-10T05:19:34.886Z,10.50
2022-10-10T05:22:02.558Z,12.95
2022-10-10T05:24:30.149Z,8.93
2022-10-10T05:26:57.793Z,10.50
2022-10-10T05:29:25.453Z,9.63
2022-10-10T05:31:53.053Z,11.13
2022-10-10T05:34:20.694Z,8.43
2022-10-10T05:36:48.273Z,8.85
2022-10-10T05:39:15.906Z,8.98
2022-10-10T05:41:43.554Z,7.00
2022-10-10T05:44:11.259Z,7.20
2022-10-10T05:46:38.856Z,9.85
2022-10-10T05:49:06.454Z,8.02
2022-10-10T05:51:34.222Z,9.60
2022-10-10T05:54:01.878Z,12.18
2022-10-10T05:56:29.498Z,10.07
2022-10-10T05:58:57.091Z,9.45
2022-10-10T06:01:24.721Z,10.13
2022-10-10T06:03:55.970Z,9.93
2022-10-10T06:06:24.604Z,12.18
2022-10-10T06:08:52.865Z,5.78
2022-10-10T06:11:20.796Z,6.80
2022-10-10T06:13:51.013Z,12.68
2022-10-10T06:16:18.780Z,18.95
2022-10-10T06:18:46.343Z,12.07
2022-10-10T06:21:14.293Z,7.63
2022-10-10T06:23:42.341Z,6.72
2022-10-10T06:26:10.298Z,8.80
2022-10-10T06:28:38.059Z,10.43
2022-10-10T06:31:06.867Z,8.90
2022-10-10T06:33:34.910Z,10.07
2022-10-10T06:36:05.414Z,12.50
2022-10-10T06:38:33.091Z,7.20
2022-10-10T06:41:07.017Z,11.57
2022-10-10T06:43:34.654Z,14.00
2022-10-10T06:46:02.605Z,13.18
2022-10-10T06:48:32.089Z,11.63
2022-10-10T06:51:00.830Z,6.05
2022-10-10T06:53:28.794Z,12.93
2022-10-10T06:55:56.759Z,15.30
2022-10-10T06:58:24.763Z,9.23
2022-10-10T07:00:56.246Z,8.13
2022-10-10T07:03:24.318Z,13.98
2022-10-10T07:05:56.230Z,8.85
2022-10-10T07:08:24.270Z,11.85
2022-10-10T07:10:51.910Z,11.18
2022-10-10T07:13:19.906Z,9.13
2022-10-10T07:15:47.569Z,13.88
2022-10-10T07:18:15.241Z,12.75
2022-10-10T07:20:42.874Z,10.77
2022-10-10T07:23:10.525Z,14.57
2022-10-10T07:25:39.561Z,8.38
2022-10-10T07:28:07.919Z,8.98
2022-10-10T07:30:43.861Z,10.23
2022-10-10T07:33:12.169Z,11.65
2022-10-10T07:35:40.042Z,6.68
2022-10-10T07:38:08.390Z,9.38
2022-10-10T07:40:36.090Z,14.40
2022-10-10T07:43:03.698Z,15.43
2022-10-10T07:45:31.408Z,10.82
2022-10-10T07:47:59.206Z,16.75
2022-10-10T07:50:26.914Z,15.75
2022-10-10T07:52:54.584Z,13.57
2022-10-10T07:55:22.271Z,10.68
2022-10-10T07:57:53.423Z,15.98
2022-10-10T08:00:21.382Z,12.68
2022-10-10T08:02:49.077Z,12.48
2022-10-10T08:05:19.526Z,17.63
2022-10-10T08:07:47.254Z,12.43
2022-10-10T08:10:15.179Z,8.55
2022-10-10T08:12:42.971Z,14.02
2022-10-10T08:17:39.525Z,14.77
2022-10-10T08:20:07.534Z,11.23
2022-10-10T08:22:35.218Z,16.48
2022-10-10T08:25:02.870Z,14.27
2022-10-10T08:27:30.495Z,13.25
2022-10-10T08:29:58.124Z,9.30
2022-10-10T08:32:25.825Z,15.85
2022-10-10T08:34:53.517Z,13.00
2022-10-10T08:37:23.713Z,15.23
2022-10-10T08:39:53.472Z,20.17
2022-10-10T08:42:30.706Z,11.23
2022-10-10T08:45:00.519Z,14.60
2022-10-10T08:47:44.892Z,17.73
2022-10-10T08:50:13.233Z,13.18
2022-10-10T08:52:46.204Z,14.57
2022-10-10T08:55:25.318Z,16.05
2022-10-10T08:57:55.678Z,11.63
2022-10-10T09:00:24.723Z,17.58
2022-10-10T09:02:56.545Z,13.10
2022-10-10T09:05:50.756Z,13.13
2022-10-10T09:08:26.903Z,21.77
2022-10-10T09:10:54.949Z,11.50
2022-10-10T09:13:31.774Z,14.07
2022-10-10T09:16:01.456Z,17.27
2022-10-10T09:18:49.366Z,13.82
2022-10-10T09:21:17.326Z,11.82
2022-10-10T09:23:58.370Z,14.70
2022-10-10T09:26:27.693Z,8.50
2022-10-10T09:29:02.681Z,12.77
2022-10-10T09:31:38.380Z,16.08
2022-10-10T09:34:19.930Z,12.13
2022-10-10T09:36:48.160Z,12.80
2022-10-10T09:39:20.174Z,11.98
2022-10-10T09:41:47.782Z,12.80
2022-10-10T09:44:16.246Z,14.02
2022-10-10T09:46:43.895Z,16.77
2022-10-10T09:49:14.859Z,14.95
2022-10-10T09:51:42.479Z,11.57
2022-10-10T09:54:10.186Z,19.90
2022-10-10T09:56:46.894Z,16.73
2022-10-10T09:59:33.042Z,16.08
2022-10-10T10:02:04.972Z,19.38
2022-10-10T10:04:33.497Z,16.98
2022-10-10T10:07:18.430Z,16.58
2022-10-10T10:09:53.653Z,14.02
2022-10-10T10:12:23.700Z,14.50
2022-10-10T10:14:52.201Z,17.08
2022-10-10T10:17:23.047Z,13.23
2022-10-10T10:19:50.750Z,15.65
2022-10-10T10:22:26.912Z,12.63
2022-10-10T10:24:55.344Z,12.70
2022-10-10T10:27:24.160Z,12.63
2022-10-10T10:29:53.073Z,12.00
2022-10-10T10:32:39.966Z,14.80
2022-10-10T10:35:10.728Z,13.55
2022-10-10T10:37:42.772Z,12.32
2022-10-10T10:40:24.570Z,12.90
2022-10-10T10:42:58.281Z,14.52
2022-10-10T10:45:25.888Z,14.00
2022-10-10T10:48:07.448Z,13.15
2022-10-10T10:50:55.200Z,12.13
2022-10-10T10:53:22.797Z,11.95
2022-10-10T10:55:53.139Z,15.05
2022-10-10T11:01:52.177Z,7.65
2022-10-10T11:05:23.554Z,9.80
2022-10-10T11:07:21.050Z,8.35
2022-10-10T11:09:55.165Z,11.80
2022-10-10T11:12:43.443Z,9.25
2022-10-10T11:15:53.992Z,11.00
2022-10-10T11:18:20.762Z,27.20
2022-10-10T11:20:51.096Z,11.18
2022-10-10T11:23:18.775Z,8.98
2022-10-10T11:25:50.843Z,11.63
2022-10-10T11:28:33.750Z,14.63
2022-10-10T11:31:07.153Z,12.23
2022-10-10T11:33:37.635Z,9.90
2022-10-10T11:36:07.722Z,10.27
2022-10-10T11:38:35.384Z,10.25
2022-10-10T11:41:18.325Z,10.45
2022-10-10T11:43:58.168Z,11.85
2022-10-10T11:46:28.505Z,10.13
2022-10-10T11:49:04.469Z,16.42
2022-10-10T11:51:50.585Z,12.68
2022-10-10T11:54:38.462Z,20.50
2022-10-10T11:57:12.679Z,10.25
2022-10-10T11:59:46.125Z,10.05
2022-10-10T12:02:25.715Z,12.35
2022-10-10T12:07:32.203Z,10.25
2022-10-10T12:10:11.133Z,8.50
2022-10-10T12:12:40.455Z,10.38
2022-10-10T12:15:10.182Z,12.93
2022-10-10T12:17:43.540Z,7.45
2022-10-10T12:20:12.471Z,17.40
2022-10-10T12:22:40.473Z,9.85
2022-10-10T12:25:08.318Z,6.82
2022-10-10T12:27:43.565Z,12.52
2022-10-10T12:30:18.297Z,8.23
2022-10-10T12:32:46.810Z,13.82
2022-10-10T12:35:32.977Z,8.73
2022-10-10T12:38:12.585Z,9.63
2022-10-10T12:41:07.540Z,8.43
2022-10-10T12:43:43.479Z,12.45
2022-10-10T12:46:28.747Z,11.95
2022-10-10T12:49:26.617Z,12.77
2022-10-10T12:52:21.701Z,10.63
2022-10-10T12:54:52.158Z,8.95
2022-10-10T12:57:33.391Z,9.65
2022-10-10T13:00:16.424Z,13.82
2022-10-10T13:03:21.246Z,15.23
2022-10-10T13:05:50.339Z,7.43
2022-10-10T13:08:22.616Z,9.48
2022-10-10T13:11:04.160Z,14.82
2022-10-10T13:16:16.206Z,8.50
2022-10-10T13:18:51.078Z,10.63
2022-10-10T13:21:21.764Z,11.18
2022-10-10T13:26:45.581Z,6.40
2022-10-10T13:29:18.930Z,10.32
2022-10-10T13:31:46.447Z,8.00
2022-10-10T13:34:23.426Z,8.95
2022-10-10T13:36:58.897Z,9.63
2022-10-10T13:39:27.437Z,9.50
2022-10-10T13:41:55.982Z,10.35
2022-10-10T13:44:30.410Z,9.75
2022-10-10T13:46:57.963Z,8.27
2022-10-10T13:49:29.480Z,9.90
2022-10-10T13:52:05.644Z,9.02
2022-10-10T13:54:37.290Z,8.35
2022-10-10T13:57:10.294Z,10.45
2022-10-10T13:59:38.084Z,9.35
2022-10-10T14:02:21.501Z,8.98
2022-10-10T14:04:52.687Z,10.25
2022-10-10T14:07:30.517Z,10.02
2022-10-10T14:10:09.823Z,8.13
2022-10-10T14:12:48.722Z,11.48
2022-10-10T14:15:41.030Z,8.82
2022-10-10T14:18:21.175Z,8.93
2022-10-10T14:20:49.312Z,10.32
2022-10-10T14:23:17.691Z,10.25
2022-10-10T14:25:47.106Z,19.42
2022-10-10T14:28:34.607Z,8.23
2022-10-10T14:31:03.130Z,11.30
2022-10-10T14:33:30.936Z,9.95
2022-10-10T14:35:59.915Z,16.02
2022-10-10T14:38:27.459Z,8.75
2022-10-10T14:40:55.426Z,9.48
2022-10-10T14:43:23.635Z,8.25
2022-10-10T14:45:54.841Z,13.00
2022-10-10T14:48:22.518Z,10.43
2022-10-10T14:50:51.238Z,12.95
2022-10-10T14:53:18.882Z,12.20
2022-10-10T14:55:46.603Z,15.18
2022-10-10T14:58:19.584Z,10.88
2022-10-10T15:00:47.594Z,8.60
2022-10-10T15:03:15.052Z,11.70
2022-10-10T15:05:42.570Z,8.93
2022-10-10T15:08:14.207Z,12.80
2022-10-10T15:10:42.610Z,12.55
2022-10-10T15:13:13.577Z,11.48
2022-10-10T15:15:41.533Z,7.57
2022-10-10T15:18:26.704Z,15.75
2022-10-10T15:20:56.586Z,24.60
2022-10-10T15:23:24.006Z,12.55
2022-10-10T15:25:51.429Z,9.50
2022-10-10T15:28:18.818Z,16.67
2022-10-10T15:30:46.838Z,10.90
2022-10-10T15:33:14.235Z,10.10
2022-10-10T15:36:07.578Z,11.88
2022-10-10T15:38:29.850Z,11.48
2022-10-10T15:40:58.738Z,14.57
2022-10-10T15:43:27.910Z,11.82
2022-10-10T15:46:01.525Z,11.27
2022-10-10T15:48:28.830Z,10.68
2022-10-10T15:50:56.691Z,12.88
2022-10-10T15:53:24.018Z,13.30
2022-10-10T15:55:51.291Z,12.05
2022-10-10T15:58:18.606Z,16.55
2022-10-10T16:00:46.286Z,10.80
2022-10-10T16:03:13.723Z,13.63
2022-10-10T16:05:42.308Z,10.13
2022-10-10T16:08:13.440Z,7.70
2022-10-10T16:10:42.956Z,11.40
2022-10-10T16:13:10.935Z,10.18
2022-10-10T16:15:38.416Z,16.02
2022-10-10T16:18:05.744Z,15.88
2022-10-10T16:20:33.059Z,11.18
2022-10-10T16:23:00.453Z,12.77
2022-10-10T16:25:27.751Z,12.75
2022-10-10T16:27:55.155Z,10.70
2022-10-10T16:30:22.616Z,16.27
2022-10-10T16:32:50.024Z,16.90
2022-10-10T16:35:17.498Z,13.68
2022-10-10T16:37:44.858Z,11.65
2022-10-10T16:40:12.414Z,13.60
2022-10-10T16:42:39.752Z,16.25
2022-10-10T16:45:07.718Z,13.32
2022-10-10T16:47:35.445Z,12.32
2022-10-10T16:50:04.557Z,11.00
2022-10-10T16:52:37.619Z,14.07
2022-10-10T16:55:09.285Z,10.57
2022-10-10T16:57:36.936Z,9.30
2022-10-10T17:00:06.788Z,11.32
2022-10-10T17:02:34.489Z,11.93
2022-10-10T17:05:04.952Z,12.60
2022-10-10T17:07:32.275Z,15.93
2022-10-10T17:09:59.588Z,13.57
2022-10-10T17:12:26.916Z,18.10
2022-10-10T17:14:54.277Z,10.82
2022-10-10T17:17:22.609Z,13.57
2022-10-10T17:19:49.953Z,11.80
2022-10-10T17:22:17.507Z,12.68
2022-10-10T17:24:45.034Z,16.40
2022-10-10T17:27:12.526Z,12.15
2022-10-10T17:29:39.870Z,14.68
2022-10-10T17:32:07.228Z,11.57
2022-10-10T17:34:35.126Z,16.90
2022-10-10T17:37:02.774Z,13.60
2022-10-10T17:39:30.118Z,12.80
2022-10-10T17:41:57.438Z,18.42
2022-10-10T17:44:26.037Z,19.88
2022-10-10T17:46:53.884Z,13.13
2022-10-10T17:49:21.355Z,18.67
2022-10-10T17:51:48.716Z,14.77
2022-10-10T17:54:16.125Z,16.73
2022-10-10T17:56:44.703Z,22.42
2022-10-10T17:59:12.358Z,18.88
2022-10-10T18:01:39.986Z,16.17
2022-10-10T18:04:07.995Z,13.82
2022-10-10T18:06:36.921Z,15.82
2022-10-10T18:09:04.333Z,15.35
2022-10-10T18:11:32.042Z,17.63
2022-10-10T18:14:02.347Z,16.77
2022-10-10T18:16:33.940Z,18.50
2022-10-10T18:21:29.159Z,14.48
2022-10-10T18:23:56.718Z,16.08
2022-10-10T18:26:27.146Z,21.13
2022-10-10T18:28:55.899Z,16.55
2022-10-10T18:31:27.550Z,17.75
2022-10-10T18:33:55.358Z,12.93
2022-10-10T18:36:28.283Z,16.70
2022-10-10T18:38:59.431Z,14.30
2022-10-10T18:41:32.790Z,24.90
2022-10-10T18:44:01.878Z,15.35
2022-10-10T18:46:29.313Z,12.25
2022-10-10T18:48:56.641Z,16.33
2022-10-10T18:51:26.195Z,16.23
2022-10-10T18:54:02.177Z,18.52
2022-10-10T18:56:31.987Z,17.60
2022-10-10T18:59:01.997Z,15.25
2022-10-10T19:01:34.364Z,19.25
2022-10-10T19:04:05.811Z,17.05
2022-10-10T19:06:34.194Z,23.50
2022-10-10T19:09:03.709Z,22.17
2022-10-10T19:11:33.807Z,22.33
2022-10-10T19:14:03.974Z,24.55
2022-10-10T19:16:31.596Z,20.75
2022-10-10T19:19:00.771Z,21.45
2022-10-10T19:21:30.324Z,18.15
2022-10-10T19:23:59.954Z,17.65
2022-10-10T19:26:33.280Z,20.30
2022-10-10T19:29:06.378Z,24.23
2022-10-10T19:31:35.513Z,27.98
2022-10-10T19:34:03.001Z,22.63
2022-10-10T19:36:30.470Z,24.35
2022-10-10T19:39:00.085Z,19.35
2022-10-10T19:41:27.605Z,17.05
2022-10-10T19:43:57.430Z,30.10
2022-10-10T19:46:27.002Z,30.23
2022-10-10T19:48:57.956Z,23.20
2022-10-10T19:51:27.715Z,17.77
2022-10-10T19:53:55.931Z,24.92
2022-10-10T19:56:24.598Z,19.65
2022-10-10T19:58:53.867Z,27.05
2022-10-10T20:01:26.854Z,23.92
2022-10-10T20:03:56.977Z,22.67
2022-10-10T20:06:24.502Z,23.17
2022-10-10T20:08:51.990Z,19.25
2022-10-10T20:11:23.236Z,20.73
2022-10-10T20:13:55.188Z,23.98
2022-10-10T20:18:50.357Z,24.05
2022-10-10T20:21:24.062Z,24.83
2022-10-10T20:23:51.829Z,25.00
2022-10-10T20:26:21.818Z,19.42
2022-10-10T20:28:51.160Z,27.30
2022-10-10T20:31:33.263Z,19.70
2022-10-10T20:34:01.970Z,17.00
2022-10-10T20:36:31.498Z,18.58
2022-10-10T20:39:01.357Z,18.35
2022-10-10T20:41:31.683Z,23.63
2022-10-10T20:44:01.590Z,15.70
2022-10-10T20:46:32.320Z,24.83
2022-10-10T20:49:02.009Z,19.38
2022-10-10T20:51:29.876Z,23.90
2022-10-10T20:54:00.696Z,17.98
2022-10-10T20:56:30.147Z,17.95
2022-10-10T20:58:57.880Z,24.58
2022-10-10T21:01:27.433Z,14.48
2022-10-10T21:03:55.467Z,15.93
2022-10-10T21:06:26.221Z,21.88
2022-10-10T21:08:54.128Z,18.20
2022-10-10T21:11:22.827Z,18.52
2022-10-10T21:13:55.839Z,23.10
2022-10-10T21:16:28.867Z,17.58
2022-10-10T21:18:59.242Z,18.83
2022-10-10T21:21:32.530Z,21.23
2022-10-10T21:24:00.911Z,23.33
2022-10-10T21:26:29.444Z,21.25
2022-10-10T21:28:57.691Z,17.70
2022-10-10T21:31:36.185Z,26.65
2022-10-10T21:34:05.804Z,16.85
2022-10-10T21:36:33.859Z,17.88
2022-10-10T21:39:02.165Z,20.83
2022-10-10T21:41:29.620Z,19.73
2022-10-10T21:43:58.870Z,17.20
2022-10-10T21:46:35.885Z,17.25
2022-10-10T21:49:07.887Z,16.50
2022-10-10T21:51:38.397Z,18.13
2022-10-10T21:54:06.493Z,20.13
2022-10-10T21:56:34.075Z,14.30
2022-10-10T21:59:01.869Z,18.65
2022-10-10T22:01:33.244Z,18.25
2022-10-10T22:04:02.085Z,20.55
2022-10-10T22:06:29.832Z,17.13
2022-10-10T22:08:58.819Z,20.35
2022-10-10T22:11:27.794Z,17.85
2022-10-10T22:13:55.207Z,19.10
2022-10-10T22:16:22.688Z,15.80
2022-10-10T22:18:55.600Z,13.40
2022-10-10T22:21:30.048Z,13.80
2022-10-10T22:24:04.792Z,20.08
2022-10-10T22:26:33.732Z,20.98
2022-10-10T22:29:01.205Z,14.48
2022-10-10T22:31:29.299Z,15.02
2022-10-10T22:33:57.050Z,22.75
2022-10-10T22:36:24.507Z,19.55
2022-10-10T22:38:51.790Z,16.50
2022-10-10T22:41:19.087Z,23.05
2022-10-10T22:43:46.599Z,18.17
2022-10-10T22:46:13.927Z,20.17
2022-10-10T22:48:41.317Z,23.85
2022-10-10T22:51:15.125Z,22.63
2022-10-10T22:53:44.318Z,17.95
2022-10-10T22:56:15.305Z,15.90
2022-10-10T22:58:43.445Z,24.07
2022-10-10T23:01:18.042Z,19.52
2022-10-10T23:03:46.371Z,18.80
2022-10-10T23:06:14.088Z,20.45
2022-10-10T23:08:41.579Z,19.90
2022-10-10T23:11:08.901Z,15.07
2022-10-10T23:13:36.235Z,16.33
2022-10-10T23:16:04.358Z,22.42
2022-10-10T23:18:32.419Z,20.63
2022-10-10T23:21:00.126Z,14.57
2022-10-10T23:23:27.475Z,16.60
2022-10-10T23:25:55.172Z,20.10
2022-10-10T23:28:23.502Z,14.93
2022-10-10T23:30:50.915Z,16.70
2022-10-10T23:33:18.330Z,19.45
2022-10-10T23:35:57.341Z,20.63
2022-10-10T23:38:24.825Z,15.32
2022-10-10T23:40:52.202Z,18.23
2022-10-10T23:43:19.548Z,18.00
2022-10-10T23:45:47.887Z,20.45
2022-10-10T23:48:16.123Z,17.70
2022-10-10T23:50:44.095Z,19.58
2022-10-10T23:53:12.264Z,18.95
2022-10-10T23:55:39.967Z,19.58
2022-10-10T23:58:07.694Z,16.20
